Langholm, United Kingdom
Current Conditions -  °F | °C
As of 3:50 AM on Tuesday 21 Oct 2014 (Local Time) from EGOM Reporting Station
Heavy Rain Heavy Rain  
Wind Chill: 11°   Ceiling: 1300
Heat Index: 11°   Visibility: 1.3mi
Dew Point: 11°   Wind: 28mph
Humidity: 100%   Direction: 210°SSW
Pressure: 29.18"   Gusts: NA
Location:  55.15°N, 3°W
Report Text: EGOM 210250Z AUTO 21024KT 2200 +RA SCT003/// BKN013/// 11/11 Q0988
Loading
Personal Weather Stations






























Interactive Weather Map
Tropical Storm Tracking
New forecast layout! Learn more

10-Day Weather Forecast

Advertisements
Track Severe Weather on mobile